createdAt,value
2019-05-05T00:06:31.762Z,6.31
2019-05-05T00:11:44.455Z,6.45
2019-05-05T00:16:45.617Z,6.03
2019-05-05T00:21:46.933Z,6.58
2019-05-05T00:26:48.287Z,6.19
2019-05-05T00:31:49.648Z,5.87
2019-05-05T00:36:51.216Z,6.14
2019-05-05T00:41:52.550Z,6.36
2019-05-05T00:46:56.804Z,6.52
2019-05-05T00:51:58.266Z,6.17
2019-05-05T00:57:00.061Z,5.96
2019-05-05T01:02:07.372Z,5.85
2019-05-05T01:07:16.841Z,6.27
2019-05-05T01:12:18.421Z,6.47
2019-05-05T01:17:20.588Z,6.25
2019-05-05T02:52:30.541Z,5.68
2019-05-05T02:57:34.439Z,5.83
2019-05-05T03:02:35.281Z,6.06
2019-05-05T03:07:36.133Z,6.00
2019-05-05T03:12:37.445Z,6.25
2019-05-05T03:17:39.505Z,6.28
2019-05-05T03:22:40.825Z,6.12
2019-05-05T03:27:42.140Z,6.04
2019-05-05T03:32:45.650Z,6.27
2019-05-05T03:37:44.745Z,6.73
2019-05-05T03:42:48.047Z,6.21
2019-05-05T03:47:49.388Z,6.77
2019-05-05T04:43:46.504Z,6.92
2019-05-05T04:48:54.410Z,6.64
2019-05-05T05:16:36.954Z,7.19
2019-05-05T05:58:36.692Z,6.23
2019-05-05T06:03:37.978Z,6.63
2019-05-05T06:08:39.286Z,7.01
2019-05-05T06:13:40.601Z,7.16
2019-05-05T06:18:43.677Z,6.89
2019-05-05T06:23:43.833Z,7.00
2019-05-05T06:28:44.823Z,7.31
2019-05-05T06:33:45.967Z,6.73
2019-05-05T06:38:47.326Z,7.11
2019-05-05T06:43:54.738Z,6.89
2019-05-05T06:48:56.093Z,7.70
2019-05-05T06:53:57.356Z,7.59
2019-05-05T06:58:58.605Z,8.01
2019-05-05T07:04:08.431Z,7.87
2019-05-05T07:09:13.897Z,7.84
2019-05-05T07:14:14.326Z,7.85
2019-05-05T07:19:15.445Z,7.77
2019-05-05T07:24:16.774Z,7.00
2019-05-05T07:29:18.220Z,7.97
2019-05-05T07:34:19.480Z,8.31
2019-05-05T07:39:20.840Z,8.11
2019-05-05T07:44:26.662Z,7.81
2019-05-05T08:14:49.569Z,8.48
2019-05-05T08:20:08.949Z,7.59
2019-05-05T08:31:11.246Z,8.22
2019-05-05T08:48:55.753Z,9.02
2019-05-05T08:53:57.081Z,8.21
2019-05-05T08:58:58.426Z,8.74
2019-05-05T09:03:59.781Z,8.31
2019-05-05T09:09:01.128Z,9.12
2019-05-05T09:14:04.113Z,8.76
2019-05-05T09:19:06.607Z,9.49
2019-05-05T09:24:14.431Z,8.27
2019-05-05T09:29:21.426Z,8.57
2019-05-05T09:34:24.001Z,9.28
2019-05-05T09:39:24.854Z,8.44
2019-05-05T09:44:26.182Z,8.83
2019-05-05T09:49:29.036Z,8.78
2019-05-05T09:54:31.132Z,8.76
2019-05-05T09:59:34.465Z,9.30
2019-05-05T10:04:33.890Z,9.22
2019-05-05T10:09:35.252Z,9.45
2019-05-05T10:14:36.562Z,9.85
2019-05-05T10:19:38.798Z,9.43
2019-05-05T10:24:41.121Z,8.87
2019-05-05T10:29:44.219Z,9.95
2019-05-05T10:34:44.070Z,10.09
2019-05-05T10:39:47.437Z,10.13
2019-05-05T10:44:48.730Z,9.94
2019-05-05T10:49:50.057Z,10.37
2019-05-05T10:54:51.392Z,10.59
2019-05-05T10:59:53.977Z,9.28
2019-05-05T11:04:54.616Z,8.94
2019-05-05T11:09:55.652Z,9.24
2019-05-05T11:14:57.044Z,9.49
2019-05-05T11:19:59.198Z,9.01
2019-05-05T11:25:01.463Z,7.55
2019-05-05T11:30:09.590Z,7.57
2019-05-05T11:35:10.909Z,7.45
2019-05-05T11:40:13.497Z,7.53
2019-05-05T11:45:14.898Z,8.12
2019-05-05T11:50:16.424Z,7.58
2019-05-05T11:55:17.927Z,7.95
2019-05-05T12:00:19.448Z,8.17
2019-05-05T12:05:20.778Z,8.69
2019-05-05T12:15:53.783Z,9.16
2019-05-05T12:20:54.495Z,9.73
2019-05-05T12:25:57.322Z,10.29
2019-05-05T12:31:03.767Z,9.88
2019-05-05T12:36:07.656Z,10.79
2019-05-05T12:41:09.032Z,10.25
2019-05-05T12:46:15.498Z,10.54
2019-05-05T12:51:16.845Z,10.43
2019-05-05T12:56:18.253Z,11.01
2019-05-05T13:01:20.577Z,10.91
2019-05-05T13:06:23.850Z,10.89
2019-05-05T13:11:23.837Z,11.06
2019-05-05T13:16:25.680Z,10.78
2019-05-05T13:21:28.006Z,10.29
2019-05-05T13:32:00.196Z,9.61
2019-05-05T13:37:03.492Z,9.77
2019-05-05T13:42:04.548Z,9.62
2019-05-05T13:47:04.585Z,9.69
2019-05-05T13:52:06.054Z,10.02
2019-05-05T13:57:07.408Z,10.45
2019-05-05T14:02:08.770Z,10.28
2019-05-05T14:07:10.149Z,11.19
2019-05-05T14:12:11.514Z,9.94
2019-05-05T14:17:14.711Z,10.59
2019-05-05T14:22:14.273Z,10.81
2019-05-05T14:27:15.628Z,10.11
2019-05-05T14:32:17.144Z,10.16
2019-05-05T14:37:24.919Z,9.31
2019-05-05T14:42:26.224Z,9.45
2019-05-05T14:47:27.546Z,9.36
2019-05-05T14:52:28.874Z,10.00
2019-05-05T14:57:30.222Z,11.72
2019-05-05T15:02:31.615Z,12.66
2019-05-05T15:07:34.031Z,13.74
2019-05-05T15:12:36.868Z,13.08
2019-05-05T15:17:38.249Z,11.17
2019-05-05T15:22:39.634Z,11.85
2019-05-05T15:27:41.001Z,11.29
2019-05-05T15:32:43.784Z,10.99
2019-05-05T15:37:43.728Z,11.20
2019-05-05T15:42:45.044Z,11.91
2019-05-05T15:47:46.412Z,11.94
2019-05-05T15:52:47.857Z,11.80
2019-05-05T15:57:49.601Z,11.08
2019-05-05T16:02:50.968Z,9.99
2019-05-05T16:07:54.200Z,9.67
2019-05-05T16:12:54.007Z,9.43
2019-05-05T16:18:07.008Z,9.34
2019-05-05T16:23:14.212Z,10.21
2019-05-05T16:28:14.560Z,11.30
2019-05-05T16:33:15.162Z,13.68
2019-05-05T16:38:17.293Z,14.39
2019-05-05T16:43:18.633Z,14.31
2019-05-05T16:48:21.216Z,14.13
2019-05-05T16:53:28.841Z,13.24
2019-05-05T16:58:30.156Z,13.43
2019-05-05T17:03:31.469Z,12.82
2019-05-05T17:08:33.783Z,13.60
2019-05-05T17:13:38.052Z,12.55
2019-05-05T17:24:08.617Z,11.76
2019-05-05T17:29:10.738Z,12.07
2019-05-05T17:34:13.702Z,12.14
2019-05-05T17:39:14.193Z,12.34
2019-05-05T17:44:21.544Z,12.03
2019-05-05T17:49:26.796Z,11.90
2019-05-05T17:54:34.136Z,10.19
2019-05-05T17:59:35.522Z,10.34
2019-05-05T18:04:36.917Z,10.56
2019-05-05T18:09:44.438Z,10.62
2019-05-05T18:14:47.561Z,11.07
2019-05-05T18:19:48.949Z,10.58
2019-05-05T18:24:50.289Z,10.00
2019-05-05T18:29:51.744Z,9.83
2019-05-05T18:34:54.582Z,9.92
2019-05-05T18:39:54.762Z,10.66
2019-05-05T18:44:58.131Z,10.95
2019-05-05T18:50:01.231Z,11.22
2019-05-05T18:55:04.414Z,10.85
2019-05-05T19:00:04.104Z,11.23
2019-05-05T19:05:10.342Z,11.20
2019-05-05T19:10:12.451Z,11.22
2019-05-05T19:15:13.896Z,11.33
2019-05-05T19:20:21.277Z,11.26
2019-05-05T19:25:24.144Z,11.17
2019-05-05T19:30:25.691Z,11.23
2019-05-05T19:35:40.797Z,11.07
2019-05-05T19:40:26.801Z,11.03
2019-05-05T19:45:28.247Z,10.55
2019-05-05T19:50:31.099Z,10.49
2019-05-05T19:55:33.815Z,10.74
2019-05-05T20:00:34.810Z,10.55
2019-05-05T20:05:35.233Z,10.78
2019-05-05T20:10:37.321Z,10.62
2019-05-05T20:15:44.271Z,10.89
2019-05-05T20:20:44.675Z,10.92
2019-05-05T20:25:45.956Z,10.98
2019-05-05T20:30:47.339Z,11.11
2019-05-05T20:35:48.705Z,11.20
2019-05-05T20:46:21.137Z,11.05
2019-05-05T20:51:24.220Z,11.10
2019-05-05T20:56:23.827Z,10.96
2019-05-05T21:01:25.193Z,10.88
2019-05-05T21:06:26.540Z,10.67
2019-05-05T21:11:28.581Z,10.66
2019-05-05T21:16:29.965Z,10.76
2019-05-05T21:21:31.352Z,10.69
2019-05-05T21:26:39.541Z,10.80
2019-05-05T21:31:40.953Z,10.73
2019-05-05T21:36:44.530Z,10.46
2019-05-05T21:41:47.409Z,10.33
2019-05-05T21:46:53.679Z,10.33
2019-05-05T21:57:35.529Z,10.17
2019-05-05T22:02:36.873Z,10.34
2019-05-05T22:07:38.192Z,10.33
2019-05-05T22:12:39.506Z,10.32
2019-05-05T22:17:40.857Z,10.23
2019-05-05T22:22:42.185Z,10.19
2019-05-05T22:27:44.116Z,10.20
2019-05-05T22:32:44.872Z,10.18
2019-05-05T22:37:46.188Z,10.17
2019-05-05T22:42:48.268Z,10.09
2019-05-05T22:47:50.337Z,9.96
2019-05-05T22:52:51.665Z,10.00
2019-05-05T22:57:54.408Z,9.95
2019-05-05T23:02:55.159Z,9.85
2019-05-05T23:07:57.237Z,9.83
2019-05-05T23:12:58.550Z,9.64
2019-05-05T23:18:00.798Z,9.72
2019-05-05T23:23:04.728Z,9.68
2019-05-05T23:28:04.401Z,9.60
2019-05-05T23:33:05.744Z,9.62
2019-05-05T23:38:07.092Z,9.78
2019-05-05T23:43:08.407Z,9.66
2019-05-05T23:48:09.763Z,9.69
2019-05-05T23:53:11.120Z,9.52
2019-05-05T23:58:14.284Z,9.64
